sensor_id;sensor_type;location;lat;lon;timestamp;P1;durP1;ratioP1;P2;durP2;ratioP2
66118;SDS011;52912;48.564;9.302;2024-01-15T00:01:15;18.05;;;7.50;;
66118;SDS011;52912;48.564;9.302;2024-01-15T00:03:40;19.50;;;8.40;;
66118;SDS011;52912;48.564;9.302;2024-01-15T00:06:06;19.63;;;6.90;;
66118;SDS011;52912;48.564;9.302;2024-01-15T00:08:31;20.67;;;7.78;;
66118;SDS011;52912;48.564;9.302;2024-01-15T00:10:56;12.25;;;5.18;;
66118;SDS011;52912;48.564;9.302;2024-01-15T00:13:23;11.07;;;5.30;;
66118;SDS011;52912;48.564;9.302;2024-01-15T00:15:49;13.85;;;6.63;;
66118;SDS011;52912;48.564;9.302;2024-01-15T00:18:14;15.10;;;6.60;;
66118;SDS011;52912;48.564;9.302;2024-01-15T00:20:39;12.55;;;5.65;;
66118;SDS011;52912;48.564;9.302;2024-01-15T00:23:05;17.83;;;7.20;;
66118;SDS011;52912;48.564;9.302;2024-01-15T00:25:30;20.55;;;9.25;;
66118;SDS011;52912;48.564;9.302;2024-01-15T00:27:56;16.38;;;7.80;;
66118;SDS011;52912;48.564;9.302;2024-01-15T00:30:22;18.00;;;8.05;;
66118;SDS011;52912;48.564;9.302;2024-01-15T00:32:48;15.45;;;7.07;;
66118;SDS011;52912;48.564;9.302;2024-01-15T00:35:13;12.20;;;4.68;;
66118;SDS011;52912;48.564;9.302;2024-01-15T00:37:39;16.20;;;6.28;;
66118;SDS011;52912;48.564;9.302;2024-01-15T00:40:05;10.60;;;5.15;;
66118;SDS011;52912;48.564;9.302;2024-01-15T00:42:31;14.27;;;6.50;;
66118;SDS011;52912;48.564;9.302;2024-01-15T00:44:56;16.77;;;7.10;;
66118;SDS011;52912;48.564;9.302;2024-01-15T00:47:23;16.35;;;6.70;;
66118;SDS011;52912;48.564;9.302;2024-01-15T00:49:48;15.98;;;6.82;;
66118;SDS011;52912;48.564;9.302;2024-01-15T00:52:14;13.50;;;6.13;;
66118;SDS011;52912;48.564;9.302;2024-01-15T00:54:39;16.20;;;6.10;;
66118;SDS011;52912;48.564;9.302;2024-01-15T00:57:05;14.82;;;6.95;;
66118;SDS011;52912;48.564;9.302;2024-01-15T00:59:30;13.77;;;6.18;;
66118;SDS011;52912;48.564;9.302;2024-01-15T01:01:56;14.27;;;6.05;;
66118;SDS011;52912;48.564;9.302;2024-01-15T01:04:22;14.63;;;7.35;;
66118;SDS011;52912;48.564;9.302;2024-01-15T01:06:48;16.52;;;7.30;;
66118;SDS011;52912;48.564;9.302;2024-01-15T01:09:13;18.38;;;7.72;;
66118;SDS011;52912;48.564;9.302;2024-01-15T01:11:39;15.20;;;6.97;;
66118;SDS011;52912;48.564;9.302;2024-01-15T01:14:04;14.20;;;6.80;;
66118;SDS011;52912;48.564;9.302;2024-01-15T01:16:30;11.10;;;5.43;;
66118;SDS011;52912;48.564;9.302;2024-01-15T01:18:55;11.45;;;5.93;;
66118;SDS011;52912;48.564;9.302;2024-01-15T01:21:22;16.50;;;6.72;;
66118;SDS011;52912;48.564;9.302;2024-01-15T01:23:47;20.05;;;7.18;;
66118;SDS011;52912;48.564;9.302;2024-01-15T01:26:15;16.02;;;6.40;;
66118;SDS011;52912;48.564;9.302;2024-01-15T01:28:40;13.05;;;5.97;;
66118;SDS011;52912;48.564;9.302;2024-01-15T01:31:06;17.88;;;7.35;;
66118;SDS011;52912;48.564;9.302;2024-01-15T01:33:31;16.55;;;6.95;;
66118;SDS011;52912;48.564;9.302;2024-01-15T01:35:56;9.40;;;5.07;;
66118;SDS011;52912;48.564;9.302;2024-01-15T01:38:23;19.88;;;7.55;;
66118;SDS011;52912;48.564;9.302;2024-01-15T01:40:49;13.60;;;6.53;;
66118;SDS011;52912;48.564;9.302;2024-01-15T01:43:14;16.92;;;8.07;;
66118;SDS011;52912;48.564;9.302;2024-01-15T01:45:39;14.43;;;5.97;;
66118;SDS011;52912;48.564;9.302;2024-01-15T01:48:05;15.50;;;6.70;;
66118;SDS011;52912;48.564;9.302;2024-01-15T01:50:31;14.50;;;5.95;;
66118;SDS011;52912;48.564;9.302;2024-01-15T01:52:57;13.93;;;6.18;;
66118;SDS011;52912;48.564;9.302;2024-01-15T01:55:24;15.80;;;5.72;;
66118;SDS011;52912;48.564;9.302;2024-01-15T01:57:52;13.15;;;6.22;;
66118;SDS011;52912;48.564;9.302;2024-01-15T02:00:17;14.00;;;5.88;;
66118;SDS011;52912;48.564;9.302;2024-01-15T02:02:43;11.45;;;4.88;;
66118;SDS011;52912;48.564;9.302;2024-01-15T02:05:09;12.57;;;5.25;;
66118;SDS011;52912;48.564;9.302;2024-01-15T02:07:35;14.35;;;6.45;;
66118;SDS011;52912;48.564;9.302;2024-01-15T02:10:00;16.98;;;7.10;;
66118;SDS011;52912;48.564;9.302;2024-01-15T02:12:27;12.48;;;4.97;;
66118;SDS011;52912;48.564;9.302;2024-01-15T02:14:52;8.65;;;3.72;;
66118;SDS011;52912;48.564;9.302;2024-01-15T02:17:18;14.65;;;5.50;;
66118;SDS011;52912;48.564;9.302;2024-01-15T02:19:43;17.67;;;6.40;;
66118;SDS011;52912;48.564;9.302;2024-01-15T02:22:09;14.15;;;6.15;;
66118;SDS011;52912;48.564;9.302;2024-01-15T02:24:36;10.50;;;4.63;;
66118;SDS011;52912;48.564;9.302;2024-01-15T02:27:01;15.65;;;6.25;;
66118;SDS011;52912;48.564;9.302;2024-01-15T02:29:27;12.40;;;5.15;;
66118;SDS011;52912;48.564;9.302;2024-01-15T02:31:52;15.35;;;5.88;;
66118;SDS011;52912;48.564;9.302;2024-01-15T02:34:18;18.77;;;6.90;;
66118;SDS011;52912;48.564;9.302;2024-01-15T02:36:43;18.67;;;6.82;;
66118;SDS011;52912;48.564;9.302;2024-01-15T02:39:09;16.67;;;6.25;;
66118;SDS011;52912;48.564;9.302;2024-01-15T02:41:35;12.93;;;5.50;;
66118;SDS011;52912;48.564;9.302;2024-01-15T02:44:01;18.30;;;7.57;;
66118;SDS011;52912;48.564;9.302;2024-01-15T02:46:26;11.27;;;5.35;;
66118;SDS011;52912;48.564;9.302;2024-01-15T02:48:52;15.18;;;6.72;;
66118;SDS011;52912;48.564;9.302;2024-01-15T02:51:17;17.15;;;7.35;;
66118;SDS011;52912;48.564;9.302;2024-01-15T02:53:43;15.60;;;5.80;;
66118;SDS011;52912;48.564;9.302;2024-01-15T02:56:08;20.10;;;7.07;;
66118;SDS011;52912;48.564;9.302;2024-01-15T02:58:35;15.02;;;6.43;;
66118;SDS011;52912;48.564;9.302;2024-01-15T03:01:00;12.23;;;5.00;;
66118;SDS011;52912;48.564;9.302;2024-01-15T03:03:26;14.68;;;5.40;;
66118;SDS011;52912;48.564;9.302;2024-01-15T03:05:51;12.15;;;4.95;;
66118;SDS011;52912;48.564;9.302;2024-01-15T03:08:17;10.43;;;5.05;;
66118;SDS011;52912;48.564;9.302;2024-01-15T03:10:42;11.80;;;5.63;;
66118;SDS011;52912;48.564;9.302;2024-01-15T03:13:08;13.93;;;5.55;;
66118;SDS011;52912;48.564;9.302;2024-01-15T03:15:34;14.18;;;6.03;;
66118;SDS011;52912;48.564;9.302;2024-01-15T03:18:00;12.70;;;5.80;;
66118;SDS011;52912;48.564;9.302;2024-01-15T03:20:25;10.68;;;4.85;;
66118;SDS011;52912;48.564;9.302;2024-01-15T03:22:51;11.50;;;4.57;;
66118;SDS011;52912;48.564;9.302;2024-01-15T03:25:16;18.30;;;7.30;;
66118;SDS011;52912;48.564;9.302;2024-01-15T03:27:41;14.40;;;5.90;;
66118;SDS011;52912;48.564;9.302;2024-01-15T03:30:07;11.43;;;5.00;;
66118;SDS011;52912;48.564;9.302;2024-01-15T03:32:34;10.25;;;4.65;;
66118;SDS011;52912;48.564;9.302;2024-01-15T03:35:00;16.23;;;6.82;;
66118;SDS011;52912;48.564;9.302;2024-01-15T03:37:25;12.57;;;6.05;;
66118;SDS011;52912;48.564;9.302;2024-01-15T03:39:51;16.85;;;6.35;;
66118;SDS011;52912;48.564;9.302;2024-01-15T03:42:16;14.82;;;6.60;;
66118;SDS011;52912;48.564;9.302;2024-01-15T03:44:42;12.63;;;5.18;;
66118;SDS011;52912;48.564;9.302;2024-01-15T03:47:07;10.63;;;4.32;;
66118;SDS011;52912;48.564;9.302;2024-01-15T03:49:34;13.98;;;6.80;;
66118;SDS011;52912;48.564;9.302;2024-01-15T03:51:59;12.82;;;4.75;;
66118;SDS011;52912;48.564;9.302;2024-01-15T03:54:25;14.75;;;5.13;;
66118;SDS011;52912;48.564;9.302;2024-01-15T03:56:50;14.10;;;6.00;;
66118;SDS011;52912;48.564;9.302;2024-01-15T03:59:16;14.88;;;6.00;;
66118;SDS011;52912;48.564;9.302;2024-01-15T04:01:41;11.55;;;5.53;;
66118;SDS011;52912;48.564;9.302;2024-01-15T04:04:13;11.88;;;5.28;;
66118;SDS011;52912;48.564;9.302;2024-01-15T04:06:40;16.33;;;6.40;;
66118;SDS011;52912;48.564;9.302;2024-01-15T04:09:05;22.00;;;8.52;;
66118;SDS011;52912;48.564;9.302;2024-01-15T04:11:31;14.65;;;5.75;;
66118;SDS011;52912;48.564;9.302;2024-01-15T04:13:56;15.18;;;5.65;;
66118;SDS011;52912;48.564;9.302;2024-01-15T04:16:22;10.38;;;4.10;;
66118;SDS011;52912;48.564;9.302;2024-01-15T04:18:47;12.07;;;5.40;;
66118;SDS011;52912;48.564;9.302;2024-01-15T04:21:12;16.17;;;6.03;;
66118;SDS011;52912;48.564;9.302;2024-01-15T04:23:40;14.85;;;4.97;;
66118;SDS011;52912;48.564;9.302;2024-01-15T04:26:05;17.38;;;5.60;;
66118;SDS011;52912;48.564;9.302;2024-01-15T04:28:30;18.70;;;6.57;;
66118;SDS011;52912;48.564;9.302;2024-01-15T04:30:56;11.93;;;5.15;;
66118;SDS011;52912;48.564;9.302;2024-01-15T04:33:21;16.75;;;5.95;;
66118;SDS011;52912;48.564;9.302;2024-01-15T04:35:47;10.10;;;5.10;;
66118;SDS011;52912;48.564;9.302;2024-01-15T04:38:12;23.00;;;8.85;;
66118;SDS011;52912;48.564;9.302;2024-01-15T04:40:39;14.27;;;4.90;;
66118;SDS011;52912;48.564;9.302;2024-01-15T04:43:04;10.13;;;5.10;;
66118;SDS011;52912;48.564;9.302;2024-01-15T04:45:30;14.23;;;5.95;;
66118;SDS011;52912;48.564;9.302;2024-01-15T04:47:55;14.10;;;6.03;;
66118;SDS011;52912;48.564;9.302;2024-01-15T04:50:21;16.50;;;6.50;;
66118;SDS011;52912;48.564;9.302;2024-01-15T04:52:46;16.10;;;6.60;;
66118;SDS011;52912;48.564;9.302;2024-01-15T04:55:12;14.18;;;5.60;;
66118;SDS011;52912;48.564;9.302;2024-01-15T04:57:39;11.63;;;5.82;;
66118;SDS011;52912;48.564;9.302;2024-01-15T05:00:05;11.07;;;5.35;;
66118;SDS011;52912;48.564;9.302;2024-01-15T05:02:31;12.73;;;6.30;;
66118;SDS011;52912;48.564;9.302;2024-01-15T05:04:57;10.95;;;5.10;;
66118;SDS011;52912;48.564;9.302;2024-01-15T05:07:22;12.75;;;5.30;;
66118;SDS011;52912;48.564;9.302;2024-01-15T05:09:48;16.95;;;6.78;;
66118;SDS011;52912;48.564;9.302;2024-01-15T05:12:13;16.55;;;6.90;;
66118;SDS011;52912;48.564;9.302;2024-01-15T05:14:40;13.32;;;6.10;;
66118;SDS011;52912;48.564;9.302;2024-01-15T05:17:05;16.85;;;6.50;;
66118;SDS011;52912;48.564;9.302;2024-01-15T05:19:31;8.98;;;4.55;;
66118;SDS011;52912;48.564;9.302;2024-01-15T05:21:56;14.50;;;6.38;;
66118;SDS011;52912;48.564;9.302;2024-01-15T05:24:21;12.32;;;5.35;;
66118;SDS011;52912;48.564;9.302;2024-01-15T05:26:47;16.48;;;6.10;;
66118;SDS011;52912;48.564;9.302;2024-01-15T05:29:12;14.55;;;6.25;;
66118;SDS011;52912;48.564;9.302;2024-01-15T05:31:39;13.30;;;5.78;;
66118;SDS011;52912;48.564;9.302;2024-01-15T05:34:05;17.00;;;5.68;;
66118;SDS011;52912;48.564;9.302;2024-01-15T05:36:30;14.38;;;6.68;;
66118;SDS011;52912;48.564;9.302;2024-01-15T05:38:55;13.30;;;5.63;;
66118;SDS011;52912;48.564;9.302;2024-01-15T05:41:21;19.13;;;7.72;;
66118;SDS011;52912;48.564;9.302;2024-01-15T05:43:46;9.95;;;4.53;;
66118;SDS011;52912;48.564;9.302;2024-01-15T05:46:12;10.90;;;4.95;;
66118;SDS011;52912;48.564;9.302;2024-01-15T05:48:39;13.57;;;6.18;;
66118;SDS011;52912;48.564;9.302;2024-01-15T05:51:04;12.68;;;6.35;;
66118;SDS011;52912;48.564;9.302;2024-01-15T05:53:30;13.75;;;5.95;;
66118;SDS011;52912;48.564;9.302;2024-01-15T05:55:55;11.13;;;5.30;;
66118;SDS011;52912;48.564;9.302;2024-01-15T05:58:20;15.27;;;6.70;;
66118;SDS011;52912;48.564;9.302;2024-01-15T06:00:46;16.15;;;6.22;;
66118;SDS011;52912;48.564;9.302;2024-01-15T06:03:11;14.63;;;5.50;;
66118;SDS011;52912;48.564;9.302;2024-01-15T06:05:38;12.80;;;6.65;;
66118;SDS011;52912;48.564;9.302;2024-01-15T06:08:04;15.25;;;7.47;;
66118;SDS011;52912;48.564;9.302;2024-01-15T06:10:29;13.90;;;6.55;;
66118;SDS011;52912;48.564;9.302;2024-01-15T06:12:55;20.15;;;9.18;;
66118;SDS011;52912;48.564;9.302;2024-01-15T06:15:21;21.50;;;10.85;;
66118;SDS011;52912;48.564;9.302;2024-01-15T06:17:46;14.35;;;6.80;;
66118;SDS011;52912;48.564;9.302;2024-01-15T06:20:12;17.13;;;8.23;;
66118;SDS011;52912;48.564;9.302;2024-01-15T06:22:39;17.05;;;6.70;;
66118;SDS011;52912;48.564;9.302;2024-01-15T06:25:05;13.90;;;5.63;;
66118;SDS011;52912;48.564;9.302;2024-01-15T06:27:31;13.60;;;5.57;;
66118;SDS011;52912;48.564;9.302;2024-01-15T06:29:57;12.90;;;6.28;;
66118;SDS011;52912;48.564;9.302;2024-01-15T06:32:22;12.60;;;5.28;;
66118;SDS011;52912;48.564;9.302;2024-01-15T06:34:48;17.10;;;7.80;;
66118;SDS011;52912;48.564;9.302;2024-01-15T06:37:13;14.65;;;7.25;;
66118;SDS011;52912;48.564;9.302;2024-01-15T06:39:40;7.70;;;4.38;;
66118;SDS011;52912;48.564;9.302;2024-01-15T06:42:06;14.68;;;5.43;;
66118;SDS011;52912;48.564;9.302;2024-01-15T06:44:31;17.52;;;8.75;;
66118;SDS011;52912;48.564;9.302;2024-01-15T06:46:57;14.80;;;6.38;;
66118;SDS011;52912;48.564;9.302;2024-01-15T06:49:22;10.63;;;5.07;;
66118;SDS011;52912;48.564;9.302;2024-01-15T06:51:48;12.57;;;5.20;;
66118;SDS011;52912;48.564;9.302;2024-01-15T06:54:13;10.90;;;5.53;;
66118;SDS011;52912;48.564;9.302;2024-01-15T06:56:40;13.93;;;6.53;;
66118;SDS011;52912;48.564;9.302;2024-01-15T06:59:05;13.48;;;6.90;;
66118;SDS011;52912;48.564;9.302;2024-01-15T07:01:31;13.07;;;5.72;;
66118;SDS011;52912;48.564;9.302;2024-01-15T07:03:56;13.35;;;5.47;;
66118;SDS011;52912;48.564;9.302;2024-01-15T07:06:21;11.23;;;5.32;;
66118;SDS011;52912;48.564;9.302;2024-01-15T07:08:47;12.38;;;5.45;;
66118;SDS011;52912;48.564;9.302;2024-01-15T07:11:12;9.25;;;4.53;;
66118;SDS011;52912;48.564;9.302;2024-01-15T07:13:39;15.20;;;6.40;;
66118;SDS011;52912;48.564;9.302;2024-01-15T07:16:05;15.18;;;6.00;;
66118;SDS011;52912;48.564;9.302;2024-01-15T07:18:30;12.40;;;5.15;;
66118;SDS011;52912;48.564;9.302;2024-01-15T07:20:55;12.73;;;5.88;;
66118;SDS011;52912;48.564;9.302;2024-01-15T07:23:21;16.33;;;6.78;;
66118;SDS011;52912;48.564;9.302;2024-01-15T07:25:46;10.15;;;4.70;;
66118;SDS011;52912;48.564;9.302;2024-01-15T07:28:12;15.75;;;6.68;;
66118;SDS011;52912;48.564;9.302;2024-01-15T07:30:39;14.23;;;5.85;;
66118;SDS011;52912;48.564;9.302;2024-01-15T07:33:04;12.20;;;6.05;;
66118;SDS011;52912;48.564;9.302;2024-01-15T07:35:30;9.40;;;5.10;;
66118;SDS011;52912;48.564;9.302;2024-01-15T07:37:55;13.15;;;5.55;;
66118;SDS011;52912;48.564;9.302;2024-01-15T07:40:21;15.48;;;6.95;;
66118;SDS011;52912;48.564;9.302;2024-01-15T07:42:46;18.55;;;6.32;;
66118;SDS011;52912;48.564;9.302;2024-01-15T07:45:12;9.77;;;4.75;;
66118;SDS011;52912;48.564;9.302;2024-01-15T07:47:38;15.18;;;5.85;;
66118;SDS011;52912;48.564;9.302;2024-01-15T07:50:04;9.48;;;4.75;;
66118;SDS011;52912;48.564;9.302;2024-01-15T07:52:30;6.57;;;3.58;;
66118;SDS011;52912;48.564;9.302;2024-01-15T07:54:56;12.30;;;4.93;;
66118;SDS011;52912;48.564;9.302;2024-01-15T07:57:21;10.60;;;4.15;;
66118;SDS011;52912;48.564;9.302;2024-01-15T07:59:46;15.30;;;5.65;;
66118;SDS011;52912;48.564;9.302;2024-01-15T08:02:12;15.43;;;5.60;;
66118;SDS011;52912;48.564;9.302;2024-01-15T08:04:39;8.63;;;4.15;;
66118;SDS011;52912;48.564;9.302;2024-01-15T08:07:04;14.73;;;5.30;;
66118;SDS011;52912;48.564;9.302;2024-01-15T08:09:30;12.70;;;4.47;;
66118;SDS011;52912;48.564;9.302;2024-01-15T08:11:55;10.20;;;4.72;;
66118;SDS011;52912;48.564;9.302;2024-01-15T08:14:21;8.73;;;4.22;;
66118;SDS011;52912;48.564;9.302;2024-01-15T08:16:46;12.57;;;4.35;;
66118;SDS011;52912;48.564;9.302;2024-01-15T08:19:11;10.20;;;4.65;;
66118;SDS011;52912;48.564;9.302;2024-01-15T08:21:38;12.77;;;4.80;;
66118;SDS011;52912;48.564;9.302;2024-01-15T08:24:04;11.13;;;4.50;;
66118;SDS011;52912;48.564;9.302;2024-01-15T08:26:30;8.82;;;4.13;;
66118;SDS011;52912;48.564;9.302;2024-01-15T08:28:55;7.75;;;2.90;;
66118;SDS011;52912;48.564;9.302;2024-01-15T08:31:21;10.02;;;3.55;;
66118;SDS011;52912;48.564;9.302;2024-01-15T08:33:47;7.32;;;3.90;;
66118;SDS011;52912;48.564;9.302;2024-01-15T08:36:13;9.57;;;4.43;;
66118;SDS011;52912;48.564;9.302;2024-01-15T08:38:40;7.35;;;3.60;;
66118;SDS011;52912;48.564;9.302;2024-01-15T08:41:05;9.07;;;3.80;;
66118;SDS011;52912;48.564;9.302;2024-01-15T08:43:31;7.72;;;3.70;;
66118;SDS011;52912;48.564;9.302;2024-01-15T08:45:56;9.82;;;3.88;;
66118;SDS011;52912;48.564;9.302;2024-01-15T08:48:22;9.23;;;4.00;;
66118;SDS011;52912;48.564;9.302;2024-01-15T08:50:47;12.63;;;4.38;;
66118;SDS011;52912;48.564;9.302;2024-01-15T08:53:13;9.35;;;4.45;;
66118;SDS011;52912;48.564;9.302;2024-01-15T08:55:40;9.50;;;4.70;;
66118;SDS011;52912;48.564;9.302;2024-01-15T08:58:05;8.80;;;4.18;;
66118;SDS011;52912;48.564;9.302;2024-01-15T09:00:31;12.38;;;4.50;;
66118;SDS011;52912;48.564;9.302;2024-01-15T09:02:56;11.13;;;5.22;;
66118;SDS011;52912;48.564;9.302;2024-01-15T09:05:22;10.18;;;4.78;;
66118;SDS011;52912;48.564;9.302;2024-01-15T09:07:48;10.57;;;4.55;;
66118;SDS011;52912;48.564;9.302;2024-01-15T09:10:13;10.68;;;4.55;;
66118;SDS011;52912;48.564;9.302;2024-01-15T09:12:40;9.75;;;3.97;;
66118;SDS011;52912;48.564;9.302;2024-01-15T09:15:06;10.38;;;5.03;;
66118;SDS011;52912;48.564;9.302;2024-01-15T09:17:31;7.90;;;3.55;;
66118;SDS011;52912;48.564;9.302;2024-01-15T09:19:57;6.93;;;3.17;;
66118;SDS011;52912;48.564;9.302;2024-01-15T09:22:22;6.75;;;3.50;;
66118;SDS011;52912;48.564;9.302;2024-01-15T09:24:48;7.45;;;3.50;;
66118;SDS011;52912;48.564;9.302;2024-01-15T09:27:13;9.93;;;4.07;;
66118;SDS011;52912;48.564;9.302;2024-01-15T09:29:41;10.93;;;5.25;;
66118;SDS011;52912;48.564;9.302;2024-01-15T09:32:06;9.07;;;3.80;;
66118;SDS011;52912;48.564;9.302;2024-01-15T09:34:32;8.43;;;3.47;;
66118;SDS011;52912;48.564;9.302;2024-01-15T09:36:57;15.05;;;7.03;;
66118;SDS011;52912;48.564;9.302;2024-01-15T09:39:23;13.43;;;7.43;;
66118;SDS011;52912;48.564;9.302;2024-01-15T09:41:48;5.57;;;3.00;;
66118;SDS011;52912;48.564;9.302;2024-01-15T09:44:14;5.25;;;2.25;;
66118;SDS011;52912;48.564;9.302;2024-01-15T09:46:42;5.35;;;2.63;;
66118;SDS011;52912;48.564;9.302;2024-01-15T09:49:07;5.68;;;2.83;;
66118;SDS011;52912;48.564;9.302;2024-01-15T09:51:33;8.77;;;2.95;;
66118;SDS011;52912;48.564;9.302;2024-01-15T09:53:58;10.73;;;3.10;;
66118;SDS011;52912;48.564;9.302;2024-01-15T09:56:24;3.90;;;1.73;;
66118;SDS011;52912;48.564;9.302;2024-01-15T09:58:50;5.65;;;2.35;;
66118;SDS011;52912;48.564;9.302;2024-01-15T10:01:15;3.65;;;2.15;;
66118;SDS011;52912;48.564;9.302;2024-01-15T10:03:43;3.38;;;2.00;;
66118;SDS011;52912;48.564;9.302;2024-01-15T10:06:09;3.58;;;2.10;;
66118;SDS011;52912;48.564;9.302;2024-01-15T10:11:04;18.13;;;2.90;;
66118;SDS011;52912;48.564;9.302;2024-01-15T10:13:29;3.70;;;1.92;;
66118;SDS011;52912;48.564;9.302;2024-01-15T10:15:55;3.33;;;2.03;;
66118;SDS011;52912;48.564;9.302;2024-01-15T10:18:21;4.75;;;2.20;;
66118;SDS011;52912;48.564;9.302;2024-01-15T10:20:47;2.90;;;1.98;;
66118;SDS011;52912;48.564;9.302;2024-01-15T10:23:13;4.22;;;2.40;;
66118;SDS011;52912;48.564;9.302;2024-01-15T10:25:41;4.53;;;2.63;;
66118;SDS011;52912;48.564;9.302;2024-01-15T10:28:06;3.50;;;2.20;;
66118;SDS011;52912;48.564;9.302;2024-01-15T10:30:32;6.00;;;2.47;;
66118;SDS011;52912;48.564;9.302;2024-01-15T10:32:58;3.97;;;2.20;;
66118;SDS011;52912;48.564;9.302;2024-01-15T10:35:25;4.57;;;2.10;;
66118;SDS011;52912;48.564;9.302;2024-01-15T10:37:53;4.57;;;2.15;;
66118;SDS011;52912;48.564;9.302;2024-01-15T10:40:18;4.75;;;2.40;;
66118;SDS011;52912;48.564;9.302;2024-01-15T10:42:44;5.65;;;2.38;;
66118;SDS011;52912;48.564;9.302;2024-01-15T10:45:09;5.57;;;2.42;;
66118;SDS011;52912;48.564;9.302;2024-01-15T10:47:35;5.53;;;2.13;;
66118;SDS011;52912;48.564;9.302;2024-01-15T10:50:01;2.97;;;1.75;;
66118;SDS011;52912;48.564;9.302;2024-01-15T10:52:27;3.85;;;1.80;;
66118;SDS011;52912;48.564;9.302;2024-01-15T10:54:54;3.30;;;1.90;;
66118;SDS011;52912;48.564;9.302;2024-01-15T10:57:20;4.28;;;1.90;;
66118;SDS011;52912;48.564;9.302;2024-01-15T10:59:46;5.05;;;2.72;;
66118;SDS011;52912;48.564;9.302;2024-01-15T11:02:12;3.28;;;2.10;;
66118;SDS011;52912;48.564;9.302;2024-01-15T11:04:39;4.53;;;2.20;;
66118;SDS011;52912;48.564;9.302;2024-01-15T11:07:04;9.93;;;4.53;;
66118;SDS011;52912;48.564;9.302;2024-01-15T11:09:30;4.93;;;2.75;;
66118;SDS011;52912;48.564;9.302;2024-01-15T11:12:07;6.05;;;2.67;;
66118;SDS011;52912;48.564;9.302;2024-01-15T11:14:34;3.50;;;1.90;;
66118;SDS011;52912;48.564;9.302;2024-01-15T11:17:00;3.03;;;1.77;;
66118;SDS011;52912;48.564;9.302;2024-01-15T11:19:26;2.70;;;1.65;;
66118;SDS011;52912;48.564;9.302;2024-01-15T11:22:00;6.97;;;2.90;;
66118;SDS011;52912;48.564;9.302;2024-01-15T11:24:35;6.35;;;2.53;;
66118;SDS011;52912;48.564;9.302;2024-01-15T11:27:02;3.72;;;1.83;;
66118;SDS011;52912;48.564;9.302;2024-01-15T11:29:32;6.43;;;2.25;;
66118;SDS011;52912;48.564;9.302;2024-01-15T11:31:59;2.47;;;1.70;;
66118;SDS011;52912;48.564;9.302;2024-01-15T11:37:17;3.28;;;1.90;;
66118;SDS011;52912;48.564;9.302;2024-01-15T11:39:43;2.38;;;1.83;;
66118;SDS011;52912;48.564;9.302;2024-01-15T11:42:09;4.20;;;1.80;;
66118;SDS011;52912;48.564;9.302;2024-01-15T11:44:37;6.97;;;2.03;;
66118;SDS011;52912;48.564;9.302;2024-01-15T11:47:04;2.80;;;2.00;;
66118;SDS011;52912;48.564;9.302;2024-01-15T11:49:34;34.90;;;13.07;;
66118;SDS011;52912;48.564;9.302;2024-01-15T11:52:23;58.70;;;20.92;;
66118;SDS011;52912;48.564;9.302;2024-01-15T11:54:49;26.15;;;10.80;;
66118;SDS011;52912;48.564;9.302;2024-01-15T11:57:22;8.85;;;4.88;;
66118;SDS011;52912;48.564;9.302;2024-01-15T11:59:56;10.35;;;3.72;;
66118;SDS011;52912;48.564;9.302;2024-01-15T12:02:21;6.53;;;4.13;;
66118;SDS011;52912;48.564;9.302;2024-01-15T12:04:47;8.65;;;4.65;;
66118;SDS011;52912;48.564;9.302;2024-01-15T12:07:12;10.90;;;4.55;;
66118;SDS011;52912;48.564;9.302;2024-01-15T12:09:42;6.50;;;4.22;;
66118;SDS011;52912;48.564;9.302;2024-01-15T12:12:08;5.38;;;2.10;;
66118;SDS011;52912;48.564;9.302;2024-01-15T12:14:37;4.47;;;2.60;;
66118;SDS011;52912;48.564;9.302;2024-01-15T12:17:04;6.28;;;3.00;;
66118;SDS011;52912;48.564;9.302;2024-01-15T12:19:30;5.13;;;2.28;;
66118;SDS011;52912;48.564;9.302;2024-01-15T12:21:56;4.40;;;2.42;;
66118;SDS011;52912;48.564;9.302;2024-01-15T12:24:21;2.97;;;1.90;;
66118;SDS011;52912;48.564;9.302;2024-01-15T12:26:47;4.35;;;2.55;;
66118;SDS011;52912;48.564;9.302;2024-01-15T12:29:12;3.95;;;2.35;;
66118;SDS011;52912;48.564;9.302;2024-01-15T12:31:38;4.82;;;2.15;;
66118;SDS011;52912;48.564;9.302;2024-01-15T12:34:05;4.25;;;2.03;;
66118;SDS011;52912;48.564;9.302;2024-01-15T12:36:30;4.95;;;1.88;;
66118;SDS011;52912;48.564;9.302;2024-01-15T12:38:58;3.10;;;2.08;;
66118;SDS011;52912;48.564;9.302;2024-01-15T12:41:24;5.05;;;2.42;;
66118;SDS011;52912;48.564;9.302;2024-01-15T12:43:49;5.90;;;2.78;;
66118;SDS011;52912;48.564;9.302;2024-01-15T12:46:15;4.53;;;2.42;;
66118;SDS011;52912;48.564;9.302;2024-01-15T12:48:40;5.57;;;2.80;;
66118;SDS011;52912;48.564;9.302;2024-01-15T12:51:07;5.22;;;2.70;;
66118;SDS011;52912;48.564;9.302;2024-01-15T12:53:33;3.97;;;2.38;;
66118;SDS011;52912;48.564;9.302;2024-01-15T12:55:58;5.03;;;2.40;;
66118;SDS011;52912;48.564;9.302;2024-01-15T12:58:24;5.53;;;3.03;;
66118;SDS011;52912;48.564;9.302;2024-01-15T13:00:49;5.95;;;3.53;;
66118;SDS011;52912;48.564;9.302;2024-01-15T13:03:15;5.53;;;2.80;;
66118;SDS011;52912;48.564;9.302;2024-01-15T13:05:40;7.60;;;2.72;;
66118;SDS011;52912;48.564;9.302;2024-01-15T13:08:07;5.43;;;2.90;;
66118;SDS011;52912;48.564;9.302;2024-01-15T13:10:33;4.97;;;2.85;;
66118;SDS011;52912;48.564;9.302;2024-01-15T13:12:58;6.47;;;2.78;;
66118;SDS011;52912;48.564;9.302;2024-01-15T13:15:24;7.97;;;3.50;;
66118;SDS011;52912;48.564;9.302;2024-01-15T13:17:49;6.75;;;3.55;;
66118;SDS011;52912;48.564;9.302;2024-01-15T13:20:14;8.93;;;3.47;;
66118;SDS011;52912;48.564;9.302;2024-01-15T13:22:40;6.43;;;3.33;;
66118;SDS011;52912;48.564;9.302;2024-01-15T13:25:07;11.82;;;4.47;;
66118;SDS011;52912;48.564;9.302;2024-01-15T13:27:33;8.70;;;3.60;;
66118;SDS011;52912;48.564;9.302;2024-01-15T13:29:58;7.75;;;3.85;;
66118;SDS011;52912;48.564;9.302;2024-01-15T13:32:24;7.30;;;2.70;;
66118;SDS011;52912;48.564;9.302;2024-01-15T13:34:50;9.95;;;4.07;;
66118;SDS011;52912;48.564;9.302;2024-01-15T13:37:15;7.78;;;3.50;;
66118;SDS011;52912;48.564;9.302;2024-01-15T13:39:41;8.35;;;4.13;;
66118;SDS011;52912;48.564;9.302;2024-01-15T13:42:07;7.72;;;3.95;;
66118;SDS011;52912;48.564;9.302;2024-01-15T13:44:33;10.68;;;4.05;;
66118;SDS011;52912;48.564;9.302;2024-01-15T13:46:59;12.85;;;4.57;;
66118;SDS011;52912;48.564;9.302;2024-01-15T13:49:24;8.23;;;4.00;;
66118;SDS011;52912;48.564;9.302;2024-01-15T13:51:50;7.50;;;3.70;;
66118;SDS011;52912;48.564;9.302;2024-01-15T13:54:15;9.07;;;4.47;;
66118;SDS011;52912;48.564;9.302;2024-01-15T13:56:41;7.35;;;3.83;;
66118;SDS011;52912;48.564;9.302;2024-01-15T13:59:08;8.52;;;3.60;;
66118;SDS011;52912;48.564;9.302;2024-01-15T14:01:33;8.30;;;4.13;;
66118;SDS011;52912;48.564;9.302;2024-01-15T14:03:58;7.10;;;4.07;;
66118;SDS011;52912;48.564;9.302;2024-01-15T14:06:25;10.13;;;4.72;;
66118;SDS011;52912;48.564;9.302;2024-01-15T14:08:50;10.98;;;4.88;;
66118;SDS011;52912;48.564;9.302;2024-01-15T14:11:16;8.18;;;4.40;;
66118;SDS011;52912;48.564;9.302;2024-01-15T14:13:41;9.18;;;4.47;;
66118;SDS011;52912;48.564;9.302;2024-01-15T14:16:08;11.88;;;5.18;;
66118;SDS011;52912;48.564;9.302;2024-01-15T14:18:34;10.20;;;4.72;;
66118;SDS011;52912;48.564;9.302;2024-01-15T14:20:59;12.35;;;5.13;;
66118;SDS011;52912;48.564;9.302;2024-01-15T14:23:24;11.25;;;5.03;;
66118;SDS011;52912;48.564;9.302;2024-01-15T14:25:50;10.20;;;4.43;;
66118;SDS011;52912;48.564;9.302;2024-01-15T14:28:15;10.55;;;5.10;;
66118;SDS011;52912;48.564;9.302;2024-01-15T14:30:41;8.63;;;4.88;;
66118;SDS011;52912;48.564;9.302;2024-01-15T14:33:07;11.80;;;5.40;;
66118;SDS011;52912;48.564;9.302;2024-01-15T14:35:33;13.65;;;6.28;;